createdAt,value
2019-05-21T00:02:13.003Z,16.07
2019-05-21T00:04:42.842Z,19.63
2019-05-21T00:07:10.590Z,19.97
2019-05-21T00:09:38.252Z,17.63
2019-05-21T00:12:05.918Z,20.23
2019-05-21T00:14:33.590Z,18.43
2019-05-21T00:17:01.210Z,19.97
2019-05-21T00:19:28.842Z,19.43
2019-05-21T00:21:56.563Z,19.87
2019-05-21T00:24:25.284Z,20.47
2019-05-21T00:26:54.099Z,21.43
2019-05-21T00:29:34.464Z,19.43
2019-05-21T00:32:38.775Z,20.10
2019-05-21T00:35:49.468Z,20.73
2019-05-21T00:38:54.014Z,21.63
2019-05-21T00:41:58.486Z,23.50
2019-05-21T00:44:26.412Z,20.67
2019-05-21T00:46:54.044Z,20.07
2019-05-21T00:49:21.668Z,19.00
2019-05-21T00:51:49.321Z,22.10
2019-05-21T00:54:17.062Z,22.00
2019-05-21T00:56:44.703Z,21.33
2019-05-21T00:59:12.391Z,19.07
2019-05-21T01:01:40.078Z,19.77
2019-05-21T01:04:07.742Z,22.13
2019-05-21T01:06:35.379Z,22.20
2019-05-21T01:09:04.512Z,20.27
2019-05-21T01:11:32.291Z,21.43
2019-05-21T01:14:00.149Z,20.70
2019-05-21T01:16:27.809Z,21.03
2019-05-21T01:18:55.457Z,23.30
2019-05-21T01:21:23.174Z,20.43
2019-05-21T01:23:50.841Z,21.67
2019-05-21T01:26:18.484Z,21.43
2019-05-21T01:28:46.183Z,20.70
2019-05-21T01:31:13.907Z,23.33
2019-05-21T01:33:41.547Z,21.53
2019-05-21T01:36:09.273Z,21.53
2019-05-21T01:38:36.903Z,21.13
2019-05-21T01:41:04.545Z,19.40
2019-05-21T01:43:32.200Z,19.67
2019-05-21T01:45:59.836Z,23.77
2019-05-21T01:48:27.428Z,20.57
2019-05-21T01:50:55.082Z,21.63
2019-05-21T01:53:22.737Z,22.87
2019-05-21T01:55:50.376Z,22.03
2019-05-21T01:58:18.131Z,22.30
2019-05-21T02:00:45.736Z,21.27
2019-05-21T02:03:13.607Z,20.50
2019-05-21T02:08:14.062Z,21.43
2019-05-21T02:10:41.796Z,20.37
2019-05-21T02:13:09.384Z,20.80
2019-05-21T02:15:37.002Z,21.83
2019-05-21T02:18:06.571Z,24.53
2019-05-21T02:20:34.079Z,23.43
2019-05-21T02:23:01.765Z,22.83
2019-05-21T02:25:30.505Z,22.17
2019-05-21T02:27:58.115Z,21.70
2019-05-21T02:30:25.806Z,23.93
2019-05-21T02:32:53.408Z,24.43
2019-05-21T02:35:21.069Z,21.50
2019-05-21T02:37:48.698Z,22.60
2019-05-21T02:40:16.842Z,21.57
2019-05-21T02:42:44.687Z,25.57
2019-05-21T02:45:13.295Z,24.50
2019-05-21T02:47:40.959Z,23.00
2019-05-21T02:50:08.964Z,23.73
2019-05-21T02:52:36.734Z,23.30
2019-05-21T02:55:05.076Z,24.50
2019-05-21T02:57:41.646Z,23.73
2019-05-21T03:00:39.618Z,22.63
2019-05-21T03:03:07.833Z,23.90
2019-05-21T03:05:35.536Z,24.20
2019-05-21T03:08:03.220Z,24.80
2019-05-21T03:10:30.830Z,23.50
2019-05-21T03:12:58.785Z,25.00
2019-05-21T03:15:26.427Z,27.03
2019-05-21T03:17:55.198Z,23.67
2019-05-21T03:20:22.814Z,22.93
2019-05-21T03:22:50.437Z,22.73
2019-05-21T03:25:18.078Z,24.27
2019-05-21T03:27:45.811Z,25.20
2019-05-21T03:30:14.051Z,27.07
2019-05-21T03:32:41.689Z,25.93
2019-05-21T03:35:09.964Z,26.47
2019-05-21T03:37:38.967Z,28.10
2019-05-21T03:40:08.620Z,26.33
2019-05-21T03:42:37.239Z,27.73
2019-05-21T03:45:07.993Z,27.03
2019-05-21T03:47:34.640Z,23.53
2019-05-21T03:50:02.680Z,25.23
2019-05-21T03:52:30.441Z,27.77
2019-05-21T03:55:02.643Z,25.80
2019-05-21T03:57:27.495Z,24.20
2019-05-21T03:59:55.113Z,23.83
2019-05-21T04:02:23.976Z,26.13
2019-05-21T04:04:51.700Z,23.47
2019-05-21T04:07:19.517Z,23.07
2019-05-21T04:09:47.283Z,25.07
2019-05-21T04:12:14.913Z,23.73
2019-05-21T04:14:47.079Z,22.67
2019-05-21T04:17:34.985Z,24.97
2019-05-21T04:20:03.230Z,24.03
2019-05-21T04:22:30.871Z,24.87
2019-05-21T04:24:58.502Z,29.00
2019-05-21T04:27:26.133Z,25.03
2019-05-21T04:29:53.781Z,22.30
2019-05-21T04:32:21.440Z,26.33
2019-05-21T04:34:49.086Z,24.63
2019-05-21T04:37:17.605Z,24.30
2019-05-21T04:39:45.454Z,26.13
2019-05-21T04:42:13.120Z,24.90
2019-05-21T04:44:40.879Z,27.53
2019-05-21T04:47:08.478Z,26.87
2019-05-21T04:49:36.253Z,28.43
2019-05-21T04:52:03.875Z,27.17
2019-05-21T04:54:31.484Z,27.60
2019-05-21T04:56:59.135Z,25.77
2019-05-21T04:59:27.012Z,30.67
2019-05-21T05:01:54.657Z,27.07
2019-05-21T05:04:22.414Z,26.13
2019-05-21T05:06:50.158Z,31.00
2019-05-21T05:09:18.790Z,26.87
2019-05-21T05:11:46.539Z,30.53
2019-05-21T05:14:14.723Z,28.23
2019-05-21T05:16:42.338Z,28.43
2019-05-21T05:19:10.001Z,28.63
2019-05-21T05:21:37.663Z,27.20
2019-05-21T05:24:05.322Z,27.90
2019-05-21T05:26:32.920Z,30.23
2019-05-21T05:29:00.557Z,30.60
2019-05-21T05:31:28.243Z,25.03
2019-05-21T05:33:55.878Z,23.53
2019-05-21T05:36:23.531Z,29.90
2019-05-21T05:38:51.193Z,29.87
2019-05-21T05:41:18.813Z,32.50
2019-05-21T05:43:46.685Z,29.10
2019-05-21T05:46:14.473Z,30.90
2019-05-21T05:49:06.034Z,29.10
2019-05-21T05:51:33.669Z,26.63
2019-05-21T05:54:02.454Z,31.17
2019-05-21T05:56:30.083Z,31.13
2019-05-21T05:58:58.058Z,29.13
2019-05-21T06:01:26.775Z,26.53
2019-05-21T06:03:54.431Z,29.10
2019-05-21T06:06:23.149Z,29.73
2019-05-21T06:08:50.899Z,29.63
2019-05-21T06:11:19.642Z,27.27
2019-05-21T06:13:47.408Z,28.47
2019-05-21T06:16:15.205Z,30.63
2019-05-21T06:18:42.960Z,30.33
2019-05-21T06:21:10.586Z,27.00
2019-05-21T06:23:40.411Z,27.67
2019-05-21T06:26:08.017Z,28.47
2019-05-21T06:28:35.674Z,29.33
2019-05-21T06:31:04.396Z,28.30
2019-05-21T06:33:32.063Z,29.50
2019-05-21T06:35:59.796Z,29.67
2019-05-21T06:38:27.458Z,26.67
2019-05-21T06:40:55.088Z,25.00
2019-05-21T06:43:23.862Z,26.07
2019-05-21T06:45:53.513Z,26.67
2019-05-21T06:48:21.175Z,27.07
2019-05-21T06:50:48.812Z,26.83
2019-05-21T06:53:16.468Z,27.37
2019-05-21T06:55:44.078Z,27.07
2019-05-21T06:58:11.802Z,23.80
2019-05-21T07:00:39.558Z,25.23
2019-05-21T07:03:07.179Z,25.37
2019-05-21T07:05:34.961Z,23.50
2019-05-21T07:08:02.593Z,24.17
2019-05-21T07:10:30.251Z,22.83
2019-05-21T07:12:57.964Z,23.43
2019-05-21T07:15:25.614Z,28.50
2019-05-21T07:17:53.246Z,23.70
2019-05-21T07:20:21.620Z,26.70
2019-05-21T07:22:49.364Z,23.70
2019-05-21T07:25:16.970Z,20.70
2019-05-21T07:27:44.693Z,17.50
2019-05-21T07:30:12.585Z,21.83
2019-05-21T07:32:41.617Z,19.07
2019-05-21T07:35:09.608Z,15.00
2019-05-21T07:37:37.366Z,14.10
2019-05-21T07:40:06.028Z,14.70
2019-05-21T07:42:33.638Z,15.90
2019-05-21T07:45:01.230Z,15.73
2019-05-21T07:47:30.003Z,12.53
2019-05-21T07:49:57.605Z,15.33
2019-05-21T07:52:25.298Z,15.33
2019-05-21T07:54:52.939Z,14.60
2019-05-21T07:57:20.620Z,13.17
2019-05-21T07:59:48.258Z,13.47
2019-05-21T08:02:17.011Z,14.47
2019-05-21T08:04:44.620Z,15.37
2019-05-21T08:07:12.394Z,16.07
2019-05-21T08:09:40.155Z,15.40
2019-05-21T08:12:34.561Z,15.83
2019-05-21T08:14:37.353Z,17.53
2019-05-21T08:17:05.005Z,14.60
2019-05-21T08:19:32.753Z,15.07
2019-05-21T08:22:00.381Z,15.90
2019-05-21T08:24:28.058Z,15.67
2019-05-21T08:26:55.809Z,12.40
2019-05-21T08:29:25.301Z,15.57
2019-05-21T08:31:52.887Z,13.50
2019-05-21T08:34:20.552Z,15.13
2019-05-21T08:36:48.189Z,14.03
2019-05-21T08:39:27.671Z,13.70
2019-05-21T08:41:45.378Z,14.77
2019-05-21T08:44:13.023Z,17.80
2019-05-21T08:46:40.653Z,15.63
2019-05-21T08:49:08.309Z,20.27
2019-05-21T08:51:37.069Z,20.83
2019-05-21T08:54:04.694Z,18.77
2019-05-21T08:56:32.461Z,18.93
2019-05-21T08:59:00.074Z,11.47
2019-05-21T09:01:27.726Z,11.17
2019-05-21T09:03:55.385Z,6.80
2019-05-21T09:06:23.037Z,7.13
2019-05-21T09:08:50.665Z,6.77
2019-05-21T09:11:18.385Z,5.40
2019-05-21T09:13:47.146Z,6.07
2019-05-21T09:16:14.783Z,5.77
2019-05-21T09:18:42.486Z,7.47
2019-05-21T09:21:10.131Z,7.00
2019-05-21T09:23:37.789Z,6.83
2019-05-21T09:26:05.525Z,6.90
2019-05-21T09:28:33.206Z,8.30
2019-05-21T09:31:01.812Z,8.03
2019-05-21T09:33:30.018Z,9.13
2019-05-21T09:35:57.830Z,8.60
2019-05-21T09:38:25.540Z,10.60
2019-05-21T09:40:53.311Z,7.90
2019-05-21T09:43:20.974Z,8.43
2019-05-21T09:45:48.633Z,8.80
2019-05-21T09:48:16.423Z,8.63
2019-05-21T09:50:44.879Z,8.60
2019-05-21T09:53:12.682Z,7.93
2019-05-21T09:55:40.362Z,8.90
2019-05-21T09:58:27.509Z,7.57
2019-05-21T10:01:22.009Z,8.33
2019-05-21T10:03:53.525Z,8.33
2019-05-21T10:06:21.162Z,8.53
2019-05-21T10:08:48.869Z,8.57
2019-05-21T10:11:29.007Z,8.47
2019-05-21T10:13:56.603Z,6.10
2019-05-21T10:16:24.365Z,6.27
2019-05-21T10:18:51.959Z,5.93
2019-05-21T10:21:20.025Z,5.57
2019-05-21T10:23:47.856Z,5.63
2019-05-21T10:26:16.610Z,5.20
2019-05-21T10:28:44.277Z,6.10
2019-05-21T10:31:13.231Z,5.63
2019-05-21T10:33:40.917Z,4.40
2019-05-21T10:36:08.588Z,4.80
2019-05-21T10:38:36.216Z,5.00
2019-05-21T10:41:04.233Z,5.17
2019-05-21T10:43:31.954Z,4.37
2019-05-21T10:45:59.584Z,4.30
2019-05-21T10:48:27.245Z,3.73
2019-05-21T10:50:54.958Z,3.63
2019-05-21T10:53:22.665Z,3.40
2019-05-21T10:55:50.387Z,3.87
2019-05-21T10:58:18.063Z,3.13
2019-05-21T11:00:47.307Z,3.07
2019-05-21T11:03:18.866Z,3.07
2019-05-21T11:06:08.594Z,3.20
2019-05-21T11:08:24.006Z,3.73
2019-05-21T11:10:51.087Z,3.70
2019-05-21T11:13:18.975Z,2.97
2019-05-21T11:15:46.744Z,3.30
2019-05-21T11:18:14.576Z,3.07
2019-05-21T11:20:42.599Z,3.30
2019-05-21T11:23:10.352Z,3.53
2019-05-21T11:25:38.025Z,3.67
2019-05-21T11:28:06.334Z,4.27
2019-05-21T11:30:34.256Z,3.60
2019-05-21T11:33:01.908Z,3.20
2019-05-21T11:35:29.573Z,3.57
2019-05-21T11:37:57.467Z,4.30
2019-05-21T11:40:25.505Z,4.37
2019-05-21T11:42:53.450Z,4.23
2019-05-21T11:45:31.627Z,4.30
2019-05-21T11:47:54.658Z,4.57
2019-05-21T11:50:22.571Z,6.33
2019-05-21T11:52:50.234Z,5.87
2019-05-21T11:55:17.862Z,4.77
2019-05-21T11:57:45.530Z,4.57
2019-05-21T12:00:14.078Z,4.90
2019-05-21T12:02:41.750Z,5.13
2019-05-21T12:05:09.863Z,5.47
2019-05-21T12:07:37.582Z,5.50
2019-05-21T12:10:06.254Z,5.93
2019-05-21T12:12:33.892Z,5.50
2019-05-21T12:15:01.729Z,5.03
2019-05-21T12:17:29.482Z,5.57
2019-05-21T12:19:57.139Z,5.37
2019-05-21T12:22:24.786Z,5.10
2019-05-21T12:24:52.527Z,7.20
2019-05-21T12:27:20.210Z,6.33
2019-05-21T12:29:47.845Z,5.80
2019-05-21T12:32:20.633Z,7.73
2019-05-21T12:34:46.061Z,6.63
2019-05-21T12:37:13.818Z,7.87
2019-05-21T12:39:41.490Z,8.53
2019-05-21T12:42:10.975Z,7.50
2019-05-21T12:44:38.655Z,8.43
2019-05-21T12:47:09.549Z,6.87
2019-05-21T12:49:35.893Z,6.93
2019-05-21T12:52:03.839Z,8.33
2019-05-21T12:54:31.510Z,7.33
2019-05-21T12:56:59.173Z,7.90
2019-05-21T12:59:26.863Z,7.77
2019-05-21T13:01:56.286Z,8.17
2019-05-21T13:04:24.864Z,7.33
2019-05-21T13:06:52.664Z,7.50
2019-05-21T13:09:32.436Z,7.07
2019-05-21T13:11:49.890Z,8.33
2019-05-21T13:14:18.887Z,7.93
2019-05-21T13:16:46.731Z,9.43
2019-05-21T13:19:14.354Z,9.47
2019-05-21T13:21:42.208Z,9.57
2019-05-21T13:24:09.856Z,8.93
2019-05-21T13:26:37.505Z,11.57
2019-05-21T13:29:06.564Z,11.33
2019-05-21T13:31:34.218Z,12.47
2019-05-21T13:34:01.950Z,12.33
2019-05-21T13:36:29.663Z,12.57
2019-05-21T13:38:57.419Z,14.13
2019-05-21T13:41:26.349Z,13.17
2019-05-21T13:43:55.276Z,15.53
2019-05-21T13:46:23.064Z,12.87
2019-05-21T13:48:50.821Z,13.30
2019-05-21T13:51:18.537Z,13.10
2019-05-21T13:53:46.406Z,13.90
2019-05-21T13:56:14.329Z,11.20
2019-05-21T13:58:42.140Z,12.70
2019-05-21T14:01:10.414Z,11.53
2019-05-21T14:03:38.248Z,12.77
2019-05-21T14:06:05.890Z,11.63
2019-05-21T14:10:55.593Z,12.77
2019-05-21T14:13:23.624Z,11.87
2019-05-21T14:15:51.283Z,11.17
2019-05-21T14:18:19.364Z,10.63
2019-05-21T14:20:47.188Z,9.67
2019-05-21T14:23:14.914Z,16.40
2019-05-21T14:25:42.779Z,9.57
2019-05-21T14:28:11.512Z,9.17
2019-05-21T14:30:39.204Z,9.83
2019-05-21T14:33:07.093Z,9.83
2019-05-21T14:35:34.866Z,9.27
2019-05-21T14:38:02.734Z,9.97
2019-05-21T14:40:32.568Z,10.30
2019-05-21T14:43:00.886Z,10.77
2019-05-21T14:45:33.118Z,9.47
2019-05-21T14:47:58.240Z,10.03
2019-05-21T14:50:26.002Z,11.17
2019-05-21T14:52:53.716Z,9.10
2019-05-21T14:55:21.338Z,8.83
2019-05-21T14:57:49.265Z,10.57
2019-05-21T15:00:23.190Z,11.50
2019-05-21T15:02:50.970Z,10.17
2019-05-21T15:05:18.687Z,9.07
2019-05-21T15:07:49.629Z,10.23
2019-05-21T15:10:16.534Z,10.13
2019-05-21T15:12:44.232Z,10.57
2019-05-21T15:15:12.429Z,8.77
2019-05-21T15:17:40.153Z,8.60
2019-05-21T15:20:12.742Z,7.60
2019-05-21T15:22:40.461Z,8.47
2019-05-21T15:25:08.211Z,8.97
2019-05-21T15:27:35.958Z,7.70
2019-05-21T15:30:04.217Z,7.33
2019-05-21T15:32:32.993Z,7.17
2019-05-21T15:35:00.657Z,7.77
2019-05-21T15:37:29.399Z,7.57
2019-05-21T15:39:57.083Z,7.47
2019-05-21T15:42:24.823Z,8.10
2019-05-21T15:44:52.537Z,7.23
2019-05-21T15:47:20.177Z,8.73
2019-05-21T15:49:47.836Z,8.90
2019-05-21T15:52:15.525Z,10.17
2019-05-21T15:54:43.170Z,11.10
2019-05-21T15:57:10.942Z,10.63
2019-05-21T15:59:38.605Z,8.67
2019-05-21T16:02:06.563Z,11.87
2019-05-21T16:04:34.188Z,9.37
2019-05-21T16:07:03.086Z,10.33
2019-05-21T16:09:30.739Z,10.07
2019-05-21T16:11:58.357Z,10.67
2019-05-21T16:14:26.012Z,9.73
2019-05-21T16:16:53.674Z,7.43
2019-05-21T16:19:21.418Z,8.23
2019-05-21T16:21:50.184Z,9.33
2019-05-21T16:24:17.910Z,7.70
2019-05-21T16:26:45.539Z,8.03
2019-05-21T16:29:13.157Z,10.00
2019-05-21T16:31:40.973Z,9.07
2019-05-21T16:34:08.630Z,10.90
2019-05-21T16:36:36.261Z,10.57
2019-05-21T16:39:06.337Z,9.50
2019-05-21T16:41:44.084Z,8.70
2019-05-21T16:44:03.768Z,9.40
2019-05-21T16:46:32.401Z,9.13
2019-05-21T16:49:00.091Z,10.43
2019-05-21T16:51:27.729Z,9.83
2019-05-21T16:53:55.395Z,9.70
2019-05-21T16:56:23.181Z,11.80
2019-05-21T16:58:50.888Z,10.20
2019-05-21T17:01:18.648Z,10.07
2019-05-21T17:03:59.109Z,9.63
2019-05-21T17:06:15.787Z,11.40
2019-05-21T17:08:44.450Z,11.10
2019-05-21T17:11:12.105Z,12.60
2019-05-21T17:13:39.757Z,11.63
2019-05-21T17:16:08.584Z,13.23
2019-05-21T17:18:37.363Z,11.30
2019-05-21T17:21:05.046Z,14.07
2019-05-21T17:23:32.953Z,14.20
2019-05-21T17:26:00.650Z,13.77
2019-05-21T17:28:28.467Z,14.00
2019-05-21T17:30:56.104Z,18.50
2019-05-21T17:33:23.749Z,16.33
2019-05-21T17:35:51.405Z,15.83
2019-05-21T17:38:19.032Z,16.77
2019-05-21T17:40:46.812Z,16.63
2019-05-21T17:43:14.639Z,16.57
2019-05-21T17:45:42.378Z,15.53
2019-05-21T17:48:22.776Z,14.13
2019-05-21T17:50:50.630Z,15.80
2019-05-21T17:53:18.359Z,15.83
2019-05-21T17:55:46.204Z,16.43
2019-05-21T17:58:14.082Z,14.33
2019-05-21T18:00:51.657Z,14.97
2019-05-21T18:03:19.413Z,13.30
2019-05-21T18:05:47.453Z,14.47
2019-05-21T18:08:17.207Z,14.73
2019-05-21T18:10:45.551Z,13.27
2019-05-21T18:13:13.913Z,14.90
2019-05-21T18:15:42.180Z,15.53
2019-05-21T18:18:10.629Z,14.63
2019-05-21T18:20:39.224Z,15.33
2019-05-21T18:23:07.520Z,17.07
2019-05-21T18:25:35.407Z,16.03
2019-05-21T18:28:03.201Z,14.53
2019-05-21T18:30:31.147Z,14.30
2019-05-21T18:33:00.214Z,18.13
2019-05-21T18:35:28.042Z,16.17
2019-05-21T18:37:55.985Z,15.60
2019-05-21T18:40:24.943Z,15.67
2019-05-21T18:42:52.733Z,16.77
2019-05-21T18:45:20.562Z,16.77
2019-05-21T18:47:48.335Z,16.10
2019-05-21T18:50:16.265Z,18.73
2019-05-21T18:52:44.147Z,16.67
2019-05-21T18:55:12.301Z,16.40
2019-05-21T18:57:40.363Z,16.90
2019-05-21T19:00:08.983Z,14.73
2019-05-21T19:02:36.868Z,16.20
2019-05-21T19:05:05.090Z,16.17
2019-05-21T19:07:32.931Z,17.97
2019-05-21T19:10:01.474Z,15.97
2019-05-21T19:12:38.237Z,16.60
2019-05-21T19:15:00.829Z,17.47
2019-05-21T19:17:35.583Z,15.83
2019-05-21T19:20:01.244Z,14.77
2019-05-21T19:22:30.164Z,15.23
2019-05-21T19:24:58.175Z,14.53
2019-05-21T19:27:25.949Z,15.07
2019-05-21T19:29:53.730Z,16.63
2019-05-21T19:32:21.612Z,15.87
2019-05-21T19:34:50.418Z,15.67
2019-05-21T19:37:18.304Z,16.57
2019-05-21T19:39:46.360Z,14.37
2019-05-21T19:42:15.993Z,13.73
2019-05-21T19:44:43.831Z,17.00
2019-05-21T19:47:11.595Z,14.40
2019-05-21T19:49:39.270Z,14.80
2019-05-21T19:52:08.229Z,14.90
2019-05-21T19:54:35.968Z,15.13
2019-05-21T19:57:04.275Z,17.13
2019-05-21T19:59:32.297Z,13.63
2019-05-21T20:02:00.307Z,17.37
2019-05-21T20:04:28.674Z,15.73
2019-05-21T20:06:56.530Z,14.87
2019-05-21T20:09:27.175Z,13.83
2019-05-21T20:11:54.898Z,15.33
2019-05-21T20:14:22.530Z,14.73
2019-05-21T20:16:50.809Z,13.20
2019-05-21T20:19:21.004Z,14.50
2019-05-21T20:21:48.648Z,13.40
2019-05-21T20:24:16.516Z,15.03
2019-05-21T20:26:44.602Z,14.33
2019-05-21T20:29:12.771Z,14.33
2019-05-21T20:31:40.620Z,13.20
2019-05-21T20:34:09.865Z,13.30
2019-05-21T20:36:40.765Z,13.73
2019-05-21T20:39:09.616Z,12.93
2019-05-21T20:41:40.180Z,13.17
2019-05-21T20:44:12.421Z,13.27
2019-05-21T20:46:40.338Z,14.03
2019-05-21T20:49:09.536Z,12.77
2019-05-21T20:51:37.820Z,13.60
2019-05-21T20:54:07.565Z,13.47
2019-05-21T20:56:35.221Z,13.63
2019-05-21T20:59:03.246Z,15.67
2019-05-21T21:01:31.497Z,13.67
2019-05-21T21:03:59.507Z,13.40
2019-05-21T21:06:35.482Z,13.83
2019-05-21T21:08:56.864Z,13.90
2019-05-21T21:11:25.728Z,12.90
2019-05-21T21:13:53.470Z,12.80
2019-05-21T21:16:21.441Z,12.97
2019-05-21T21:18:49.074Z,14.57
2019-05-21T21:21:17.043Z,14.77
2019-05-21T21:23:58.313Z,14.27
2019-05-21T21:26:26.391Z,13.93
2019-05-21T21:28:54.170Z,15.80
2019-05-21T21:31:22.434Z,15.00
2019-05-21T21:33:50.155Z,15.47
2019-05-21T21:36:18.176Z,14.93
2019-05-21T21:38:47.146Z,13.83
2019-05-21T21:41:14.882Z,15.03
2019-05-21T21:43:42.552Z,14.73
2019-05-21T21:46:10.403Z,15.80
2019-05-21T21:48:38.158Z,16.23
2019-05-21T21:51:07.472Z,14.70
2019-05-21T21:53:35.510Z,13.10
2019-05-21T21:56:03.155Z,14.27
2019-05-21T21:58:30.785Z,14.50
2019-05-21T22:01:33.131Z,14.60
2019-05-21T22:04:04.699Z,14.53
2019-05-21T22:06:34.906Z,17.47
2019-05-21T22:09:06.236Z,15.63
2019-05-21T22:11:34.154Z,14.77
2019-05-21T22:14:02.469Z,15.37
2019-05-21T22:16:30.355Z,14.50
2019-05-21T22:18:58.401Z,16.10
2019-05-21T22:21:26.932Z,16.80
2019-05-21T22:23:54.604Z,16.23
2019-05-21T22:26:22.786Z,16.20
2019-05-21T22:28:50.597Z,16.57
2019-05-21T22:31:18.267Z,17.67
2019-05-21T22:33:45.896Z,17.60
2019-05-21T22:36:14.129Z,18.50
2019-05-21T22:38:41.793Z,18.80
2019-05-21T22:41:09.472Z,16.43
2019-05-21T22:43:37.119Z,17.40
2019-05-21T22:46:04.754Z,15.30
2019-05-21T22:48:32.404Z,17.00
2019-05-21T22:51:00.022Z,17.43
2019-05-21T22:53:27.657Z,17.20
2019-05-21T22:55:55.383Z,16.70
2019-05-21T22:58:23.036Z,17.27
2019-05-21T23:00:51.011Z,16.93
2019-05-21T23:03:18.799Z,17.53
2019-05-21T23:05:46.446Z,17.67
2019-05-21T23:08:15.307Z,17.53
2019-05-21T23:10:42.975Z,21.07
2019-05-21T23:13:10.633Z,19.03
2019-05-21T23:15:39.016Z,16.63
2019-05-21T23:18:18.364Z,17.70
2019-05-21T23:21:08.433Z,18.30
2019-05-21T23:23:37.033Z,17.57
2019-05-21T23:26:05.592Z,19.13
2019-05-21T23:28:33.781Z,16.33
2019-05-21T23:31:02.633Z,19.63
2019-05-21T23:33:30.584Z,18.43
2019-05-21T23:35:58.858Z,19.37
2019-05-21T23:38:27.089Z,19.93
2019-05-21T23:40:54.752Z,20.33
2019-05-21T23:43:22.975Z,23.80
2019-05-21T23:45:50.848Z,19.90
2019-05-21T23:48:18.467Z,19.10
2019-05-21T23:50:46.073Z,19.43
2019-05-21T23:53:14.184Z,19.77
2019-05-21T23:55:42.027Z,18.03
2019-05-21T23:58:09.676Z,20.10
